createdAt,value
2023-01-25T00:00:41.410Z,4.68
2023-01-25T00:03:08.439Z,4.53
2023-01-25T00:05:35.463Z,4.72
2023-01-25T00:08:02.474Z,4.47
2023-01-25T00:10:29.591Z,4.43
2023-01-25T00:12:57.241Z,3.78
2023-01-25T00:15:24.696Z,3.85
2023-01-25T00:17:51.721Z,4.20
2023-01-25T00:20:18.722Z,5.55
2023-01-25T00:22:45.696Z,4.10
2023-01-25T00:25:12.673Z,4.72
2023-01-25T00:27:40.211Z,4.70
2023-01-25T00:30:08.176Z,4.10
2023-01-25T00:33:09.938Z,3.75
2023-01-25T00:35:36.874Z,4.25
2023-01-25T00:38:18.016Z,5.03
2023-01-25T00:40:44.984Z,5.03
2023-01-25T00:43:11.938Z,4.68
2023-01-25T00:45:38.927Z,4.05
2023-01-25T00:48:06.440Z,4.78
2023-01-25T00:50:33.549Z,3.97
2023-01-25T00:53:00.613Z,3.40
2023-01-25T00:55:27.585Z,4.18
2023-01-25T00:57:54.572Z,4.37
2023-01-25T01:00:21.636Z,4.03
2023-01-25T01:02:48.707Z,4.07
2023-01-25T01:05:15.874Z,4.17
2023-01-25T01:07:43.816Z,4.53
2023-01-25T01:10:11.191Z,4.35
2023-01-25T01:12:38.223Z,3.90
2023-01-25T01:15:06.336Z,3.87
2023-01-25T01:17:33.555Z,5.00
2023-01-25T01:20:00.488Z,3.90
2023-01-25T01:22:27.593Z,4.57
2023-01-25T01:24:54.600Z,3.75
2023-01-25T01:27:21.571Z,4.30
2023-01-25T01:29:48.501Z,4.22
2023-01-25T01:32:15.728Z,4.30
2023-01-25T01:34:42.811Z,3.78
2023-01-25T01:37:10.091Z,4.20
2023-01-25T01:39:37.077Z,4.95
2023-01-25T01:42:04.667Z,4.90
2023-01-25T01:44:53.434Z,3.22
2023-01-25T01:47:35.791Z,4.10
2023-01-25T01:50:16.906Z,3.70
2023-01-25T01:52:44.040Z,4.88
2023-01-25T01:55:22.027Z,3.60
2023-01-25T01:57:55.812Z,4.43
2023-01-25T02:00:38.118Z,4.00
2023-01-25T02:03:05.157Z,6.57
2023-01-25T02:06:00.419Z,4.72
2023-01-25T02:08:32.066Z,4.60
2023-01-25T02:11:01.168Z,5.00
2023-01-25T02:13:29.047Z,3.92
2023-01-25T02:15:59.161Z,5.13
2023-01-25T02:18:26.363Z,4.97
2023-01-25T02:20:58.012Z,3.92
2023-01-25T02:23:34.132Z,4.50
2023-01-25T02:26:04.813Z,5.80
2023-01-25T02:29:10.363Z,4.05
2023-01-25T02:31:37.422Z,3.78
2023-01-25T02:34:04.661Z,3.83
2023-01-25T02:36:36.104Z,4.65
2023-01-25T02:39:20.120Z,4.43
2023-01-25T02:41:48.158Z,4.43
2023-01-25T02:44:20.220Z,4.70
2023-01-25T02:46:48.016Z,3.88
2023-01-25T02:49:16.087Z,3.90
2023-01-25T02:51:47.683Z,3.70
2023-01-25T02:54:16.552Z,4.60
2023-01-25T02:56:43.915Z,4.63
2023-01-25T02:59:13.442Z,4.30
2023-01-25T03:01:42.873Z,4.25
2023-01-25T03:04:10.554Z,4.93
2023-01-25T03:06:38.827Z,3.63
2023-01-25T03:09:08.816Z,4.50
2023-01-25T03:11:36.237Z,3.92
2023-01-25T03:14:03.333Z,3.85
2023-01-25T03:16:32.024Z,4.10
2023-01-25T03:18:59.432Z,4.25
2023-01-25T03:21:27.130Z,4.53
2023-01-25T03:24:01.329Z,3.80
2023-01-25T03:26:29.615Z,3.95
2023-01-25T03:28:56.900Z,5.13
2023-01-25T03:31:24.830Z,3.85
2023-01-25T03:33:52.285Z,3.92
2023-01-25T03:36:19.429Z,3.00
2023-01-25T03:38:46.574Z,4.20
2023-01-25T03:41:14.113Z,3.83
2023-01-25T03:43:41.225Z,4.70
2023-01-25T03:46:08.267Z,5.18
2023-01-25T03:48:35.354Z,4.30
2023-01-25T03:51:02.568Z,5.40
2023-01-25T03:53:31.076Z,5.65
2023-01-25T03:56:08.329Z,4.57
2023-01-25T03:58:37.489Z,4.50
2023-01-25T04:01:07.496Z,4.85
2023-01-25T04:03:35.386Z,4.65
2023-01-25T04:06:03.484Z,3.93
2023-01-25T04:08:31.310Z,4.15
2023-01-25T04:11:05.863Z,4.97
2023-01-25T04:13:36.793Z,5.00
2023-01-25T04:16:06.212Z,4.50
2023-01-25T04:18:33.144Z,4.60
2023-01-25T04:21:00.270Z,4.13
2023-01-25T04:23:27.672Z,4.07
2023-01-25T04:26:00.134Z,4.85
2023-01-25T04:28:28.313Z,5.32
2023-01-25T04:30:56.906Z,5.20
2023-01-25T04:33:24.623Z,4.90
2023-01-25T04:35:52.035Z,4.93
2023-01-25T04:38:19.532Z,6.47
2023-01-25T04:40:46.622Z,4.82
2023-01-25T04:43:18.369Z,5.28
2023-01-25T04:45:46.078Z,6.72
2023-01-25T04:48:14.031Z,5.20
2023-01-25T04:50:42.870Z,5.63
2023-01-25T04:53:12.135Z,5.13
2023-01-25T04:55:40.137Z,5.53
2023-01-25T04:58:07.107Z,4.95
2023-01-25T05:00:34.153Z,5.47
2023-01-25T05:03:01.142Z,4.80
2023-01-25T05:05:28.229Z,4.45
2023-01-25T05:07:55.194Z,32.45
2023-01-25T05:10:22.268Z,36.25
2023-01-25T05:12:49.271Z,35.20
2023-01-25T05:15:16.394Z,37.17
2023-01-25T05:17:43.371Z,37.00
2023-01-25T05:20:11.427Z,42.87
2023-01-25T05:22:38.425Z,36.03
2023-01-25T05:25:26.308Z,36.55
2023-01-25T05:27:53.253Z,34.60
2023-01-25T05:30:20.375Z,38.90
2023-01-25T05:32:50.241Z,40.33
2023-01-25T05:35:17.377Z,38.83
2023-01-25T05:37:44.338Z,42.13
2023-01-25T05:40:12.051Z,40.22
2023-01-25T05:42:39.052Z,42.65
2023-01-25T05:45:07.511Z,40.72
2023-01-25T05:47:35.020Z,40.20
2023-01-25T05:50:02.141Z,41.30
2023-01-25T05:52:29.184Z,44.78
2023-01-25T05:54:56.154Z,37.33
2023-01-25T05:57:23.117Z,38.92
2023-01-25T05:59:50.057Z,39.78
2023-01-25T06:02:17.135Z,41.05
2023-01-25T06:04:44.238Z,41.73
2023-01-25T06:07:11.215Z,43.15
2023-01-25T06:09:38.189Z,44.40
2023-01-25T06:12:06.801Z,45.53
2023-01-25T06:14:33.862Z,44.28
2023-01-25T06:17:01.113Z,49.85
2023-01-25T06:19:28.366Z,43.23
2023-01-25T06:21:55.292Z,43.15
2023-01-25T06:24:22.411Z,42.47
2023-01-25T06:26:49.439Z,42.80
2023-01-25T06:29:16.423Z,46.13
2023-01-25T06:31:43.506Z,42.72
2023-01-25T06:34:10.584Z,42.88
2023-01-25T06:36:37.601Z,44.47
2023-01-25T06:39:04.783Z,49.78
2023-01-25T06:41:31.829Z,49.20
2023-01-25T06:43:58.881Z,23.33
2023-01-25T06:46:25.962Z,15.15
2023-01-25T06:48:53.067Z,16.30
2023-01-25T06:51:20.052Z,14.52
2023-01-25T06:53:47.885Z,12.60
2023-01-25T06:56:19.286Z,13.20
2023-01-25T06:58:46.483Z,13.93
2023-01-25T07:01:20.134Z,13.15
2023-01-25T07:03:52.082Z,13.85
2023-01-25T07:06:19.899Z,12.35
2023-01-25T07:08:47.001Z,14.63
2023-01-25T07:11:14.576Z,13.17
2023-01-25T07:13:45.958Z,15.38
2023-01-25T07:16:17.705Z,12.55
2023-01-25T07:18:44.737Z,13.00
2023-01-25T07:21:14.247Z,13.50
2023-01-25T07:23:41.945Z,12.85
2023-01-25T07:26:23.171Z,13.73
2023-01-25T07:28:51.308Z,17.75
2023-01-25T07:31:20.009Z,14.95
2023-01-25T07:33:52.153Z,11.32
2023-01-25T07:36:19.836Z,13.95
2023-01-25T07:38:47.441Z,14.30
2023-01-25T07:41:16.375Z,12.43
2023-01-25T07:43:43.447Z,14.50
2023-01-25T07:46:12.714Z,13.25
2023-01-25T07:48:48.862Z,12.68
2023-01-25T07:51:25.078Z,13.65
2023-01-25T07:53:56.129Z,12.80
2023-01-25T07:56:29.582Z,10.93
2023-01-25T07:58:58.385Z,13.57
2023-01-25T08:01:28.377Z,12.93
2023-01-25T08:03:56.595Z,11.45
2023-01-25T08:06:27.604Z,12.70
2023-01-25T08:08:55.349Z,13.13
2023-01-25T08:11:26.200Z,13.20
2023-01-25T08:13:53.620Z,13.15
2023-01-25T08:16:24.473Z,12.00
2023-01-25T08:18:55.215Z,13.18
2023-01-25T08:21:29.171Z,12.60
2023-01-25T08:24:02.380Z,12.15
2023-01-25T08:26:29.812Z,11.50
2023-01-25T08:28:57.582Z,11.18
2023-01-25T08:31:28.273Z,11.18
2023-01-25T08:33:56.067Z,11.68
2023-01-25T08:36:24.365Z,10.73
2023-01-25T08:38:57.242Z,11.93
2023-01-25T08:41:25.409Z,13.45
2023-01-25T08:43:54.779Z,10.73
2023-01-25T08:46:24.160Z,11.50
2023-01-25T08:48:59.250Z,12.02
2023-01-25T08:51:27.060Z,14.02
2023-01-25T08:53:54.700Z,12.93
2023-01-25T08:56:22.120Z,11.88
2023-01-25T08:58:50.963Z,12.80
2023-01-25T09:01:19.843Z,11.10
2023-01-25T09:03:50.350Z,12.02
2023-01-25T09:06:20.296Z,11.65
2023-01-25T09:08:47.825Z,11.40
2023-01-25T09:11:18.970Z,12.52
2023-01-25T09:13:48.486Z,11.20
2023-01-25T09:16:28.266Z,12.55
2023-01-25T09:18:58.589Z,12.82
2023-01-25T09:21:26.255Z,11.48
2023-01-25T09:24:09.281Z,11.90
2023-01-25T09:26:40.658Z,10.77
2023-01-25T09:29:08.842Z,11.77
2023-01-25T09:31:40.812Z,11.90
2023-01-25T09:34:08.697Z,11.35
2023-01-25T09:36:36.387Z,16.17
2023-01-25T09:39:03.803Z,11.23
2023-01-25T09:41:58.395Z,10.60
2023-01-25T09:45:45.773Z,11.63
2023-01-25T09:48:28.308Z,10.88
2023-01-25T09:51:29.986Z,11.50
2023-01-25T09:53:58.683Z,12.25
2023-01-25T09:56:33.903Z,9.90
2023-01-25T09:59:11.020Z,12.07
2023-01-25T10:02:05.296Z,11.43
2023-01-25T10:04:45.120Z,11.82
2023-01-25T10:07:46.196Z,13.48
2023-01-25T10:10:30.073Z,11.83
2023-01-25T10:12:57.102Z,10.45
2023-01-25T10:15:33.352Z,17.73
2023-01-25T10:18:40.844Z,21.27
2023-01-25T10:21:21.444Z,13.10
2023-01-25T10:24:31.066Z,15.60
2023-01-25T10:27:08.609Z,11.40
2023-01-25T10:29:37.964Z,12.65
2023-01-25T10:32:32.459Z,11.13
2023-01-25T10:35:35.488Z,11.25
2023-01-25T10:38:13.331Z,12.10
2023-01-25T10:41:10.795Z,13.43
2023-01-25T10:43:38.555Z,11.52
2023-01-25T10:46:26.504Z,11.23
2023-01-25T10:48:53.597Z,12.07
2023-01-25T10:51:35.409Z,10.50
2023-01-25T10:54:06.703Z,10.20
2023-01-25T10:56:38.953Z,10.73
2023-01-25T10:59:21.261Z,12.50
2023-01-25T11:01:49.580Z,11.32
2023-01-25T11:04:36.242Z,11.40
2023-01-25T11:07:06.032Z,11.48
2023-01-25T11:09:39.682Z,11.10
2023-01-25T11:12:16.401Z,13.70
2023-01-25T11:14:43.548Z,17.23
2023-01-25T11:17:31.504Z,11.07
2023-01-25T11:20:08.522Z,13.93
2023-01-25T11:22:35.879Z,10.07
2023-01-25T11:25:28.506Z,12.50
2023-01-25T11:28:18.286Z,10.80
2023-01-25T11:30:46.803Z,11.30
2023-01-25T11:33:16.906Z,11.80
2023-01-25T11:36:06.362Z,12.20
2023-01-25T11:38:33.469Z,10.80
2023-01-25T11:41:26.829Z,11.48
2023-01-25T11:44:43.727Z,11.75
2023-01-25T11:47:47.384Z,12.02
2023-01-25T11:50:42.416Z,12.02
2023-01-25T11:53:46.147Z,10.18
2023-01-25T11:56:22.181Z,11.50
2023-01-25T11:59:15.134Z,11.93
2023-01-25T12:02:08.655Z,11.45
2023-01-25T12:05:21.442Z,12.40
2023-01-25T12:08:11.395Z,10.80
2023-01-25T12:11:22.659Z,11.02
2023-01-25T12:14:07.635Z,11.13
2023-01-25T12:16:54.960Z,12.38
2023-01-25T12:20:20.701Z,12.85
2023-01-25T12:22:56.778Z,11.15
2023-01-25T12:25:43.264Z,12.18
2023-01-25T12:28:27.393Z,12.23
2023-01-25T12:30:58.638Z,13.10
2023-01-25T12:33:40.209Z,9.80
2023-01-25T12:36:33.403Z,12.13
2023-01-25T12:39:35.744Z,13.32
2023-01-25T12:42:24.546Z,12.02
2023-01-25T12:45:02.732Z,10.55
2023-01-25T12:47:46.409Z,10.93
2023-01-25T12:50:28.746Z,10.25
2023-01-25T12:53:04.848Z,11.70
2023-01-25T12:55:33.044Z,11.57
2023-01-25T12:58:38.154Z,12.10
2023-01-25T13:01:23.088Z,13.50
2023-01-25T13:04:25.992Z,10.83
2023-01-25T13:07:12.466Z,13.25
2023-01-25T13:09:51.864Z,11.57
2023-01-25T13:12:18.905Z,11.25
2023-01-25T13:14:45.904Z,12.35
2023-01-25T13:17:32.892Z,11.88
2023-01-25T13:20:00.795Z,11.85
2023-01-25T13:22:46.055Z,10.93
2023-01-25T13:25:23.285Z,11.43
2023-01-25T13:27:50.451Z,12.93
2023-01-25T13:30:31.352Z,11.93
2023-01-25T13:33:06.903Z,11.50
2023-01-25T13:35:40.605Z,12.35
2023-01-25T13:38:29.911Z,14.40
2023-01-25T13:41:15.552Z,14.05
2023-01-25T13:43:47.448Z,12.43
2023-01-25T13:46:19.298Z,13.32
2023-01-25T13:48:56.073Z,12.05
2023-01-25T13:51:24.882Z,12.15
2023-01-25T13:54:00.380Z,12.85
2023-01-25T13:56:32.195Z,11.33
2023-01-25T13:58:59.586Z,9.65
2023-01-25T14:01:28.189Z,10.73
2023-01-25T14:04:02.536Z,15.77
2023-01-25T14:06:37.112Z,11.77
2023-01-25T14:09:10.671Z,11.90
2023-01-25T14:12:01.764Z,11.98
2023-01-25T14:14:33.209Z,12.50
2023-01-25T14:17:20.921Z,12.13
2023-01-25T14:19:58.544Z,11.82
2023-01-25T14:22:28.893Z,11.65
2023-01-25T14:25:13.400Z,15.05
2023-01-25T14:27:59.839Z,11.88
2023-01-25T14:30:30.427Z,9.65
2023-01-25T14:33:15.896Z,20.67
2023-01-25T14:35:58.513Z,11.50
2023-01-25T14:38:40.734Z,12.75
2023-01-25T14:41:29.795Z,12.63
2023-01-25T14:44:11.525Z,11.30
2023-01-25T14:46:40.120Z,11.77
2023-01-25T14:49:15.568Z,12.10
2023-01-25T14:51:50.551Z,11.55
2023-01-25T14:54:22.877Z,10.98
2023-01-25T14:56:53.700Z,12.73
2023-01-25T14:59:44.467Z,11.40
2023-01-25T15:02:40.470Z,11.88
2023-01-25T15:05:33.169Z,12.20
2023-01-25T15:08:08.934Z,13.05
2023-01-25T15:10:38.861Z,13.17
2023-01-25T15:13:14.511Z,11.98
2023-01-25T15:16:00.857Z,10.45
2023-01-25T15:18:44.400Z,11.37
2023-01-25T15:21:31.452Z,10.48
2023-01-25T15:24:06.827Z,10.13
2023-01-25T15:26:36.327Z,12.10
2023-01-25T15:29:15.300Z,20.23
2023-01-25T15:31:43.395Z,8.93
2023-01-25T15:34:21.155Z,27.17
2023-01-25T15:36:48.669Z,13.90
2023-01-25T15:39:19.067Z,19.20
2023-01-25T15:41:47.467Z,11.50
2023-01-25T15:44:17.468Z,10.95
2023-01-25T15:46:49.726Z,12.75
2023-01-25T15:49:26.006Z,10.50
2023-01-25T15:51:54.510Z,12.77
2023-01-25T15:54:21.598Z,11.75
2023-01-25T15:56:56.099Z,11.88
2023-01-25T15:59:23.294Z,10.53
2023-01-25T16:01:50.410Z,55.53
2023-01-25T16:04:17.404Z,63.22
2023-01-25T16:06:52.422Z,53.22
2023-01-25T16:09:29.798Z,51.10
2023-01-25T16:12:03.397Z,21.30
2023-01-25T16:14:31.563Z,13.20
2023-01-25T16:17:05.586Z,13.85
2023-01-25T16:19:33.544Z,15.53
2023-01-25T16:22:00.745Z,13.60
2023-01-25T16:24:28.002Z,16.33
2023-01-25T16:26:57.947Z,12.98
2023-01-25T16:29:25.757Z,16.92
2023-01-25T16:31:53.895Z,59.75
2023-01-25T16:34:22.134Z,54.28
2023-01-25T16:36:51.022Z,45.30
2023-01-25T16:39:24.722Z,49.30
2023-01-25T16:41:52.046Z,32.00
2023-01-25T16:44:19.105Z,40.35
2023-01-25T16:46:48.997Z,15.80
2023-01-25T16:49:20.798Z,56.15
2023-01-25T16:51:50.537Z,52.17
2023-01-25T16:54:19.984Z,16.10
2023-01-25T16:56:48.801Z,56.87
2023-01-25T16:59:17.022Z,43.42
2023-01-25T17:01:45.016Z,24.15
2023-01-25T17:04:12.526Z,60.43
2023-01-25T17:06:43.861Z,52.97
2023-01-25T17:09:24.191Z,30.50
2023-01-25T17:11:53.713Z,13.23
2023-01-25T17:14:21.571Z,58.35
2023-01-25T17:16:51.664Z,58.67
2023-01-25T17:19:19.446Z,18.63
2023-01-25T17:21:47.094Z,54.70
2023-01-25T17:24:18.154Z,57.85
2023-01-25T17:26:45.227Z,37.80
2023-01-25T17:29:13.695Z,28.70
2023-01-25T17:31:42.149Z,53.28
2023-01-25T17:34:13.460Z,32.03
2023-01-25T17:36:40.551Z,15.15
2023-01-25T17:39:08.301Z,51.92
2023-01-25T17:41:35.691Z,46.13
2023-01-25T17:44:03.084Z,15.35
2023-01-25T17:46:34.549Z,53.42
2023-01-25T17:49:03.160Z,31.10
2023-01-25T17:51:31.596Z,16.25
2023-01-25T17:53:59.536Z,56.38
2023-01-25T17:56:27.528Z,29.47
2023-01-25T17:58:55.218Z,58.47
2023-01-25T18:01:26.577Z,30.23
2023-01-25T18:03:54.804Z,15.77
2023-01-25T18:06:25.499Z,56.43
2023-01-25T18:08:56.181Z,38.60
2023-01-25T18:11:26.055Z,15.38
2023-01-25T18:13:57.113Z,62.10
2023-01-25T18:16:27.244Z,23.88
2023-01-25T18:18:59.729Z,57.00
2023-01-25T18:21:31.687Z,29.27
2023-01-25T18:24:23.182Z,66.45
2023-01-25T18:26:51.822Z,28.10
2023-01-25T18:29:31.338Z,56.55
2023-01-25T18:32:00.766Z,34.88
2023-01-25T18:34:27.770Z,60.50
2023-01-25T18:36:59.336Z,45.30
2023-01-25T18:39:27.416Z,16.58
2023-01-25T18:41:54.749Z,59.40
2023-01-25T18:44:21.892Z,31.23
2023-01-25T18:46:49.193Z,60.65
2023-01-25T18:49:16.395Z,33.42
2023-01-25T18:52:04.915Z,60.42
2023-01-25T18:54:32.536Z,25.73
2023-01-25T18:57:00.471Z,57.92
2023-01-25T18:59:27.544Z,41.25
2023-01-25T19:01:54.572Z,17.38
2023-01-25T19:04:21.617Z,15.88
2023-01-25T19:06:48.866Z,17.58
2023-01-25T19:09:15.956Z,19.25
2023-01-25T19:11:42.972Z,16.73
2023-01-25T19:14:10.044Z,17.30
2023-01-25T19:16:37.119Z,17.42
2023-01-25T19:19:04.182Z,14.25
2023-01-25T19:21:31.189Z,18.43
2023-01-25T19:23:58.307Z,15.30
2023-01-25T19:26:26.145Z,15.55
2023-01-25T19:28:54.243Z,16.92
2023-01-25T19:31:24.495Z,17.52
2023-01-25T19:33:58.521Z,19.13
2023-01-25T19:36:26.336Z,19.23
2023-01-25T19:38:53.442Z,19.88
2023-01-25T19:41:26.569Z,17.63
2023-01-25T19:43:58.645Z,18.45
2023-01-25T19:46:32.556Z,18.15
2023-01-25T19:49:00.692Z,15.07
2023-01-25T19:51:33.796Z,16.60
2023-01-25T19:54:05.836Z,21.75
2023-01-25T19:56:41.279Z,52.70
2023-01-25T19:59:14.698Z,27.08
2023-01-25T20:01:43.923Z,17.10
2023-01-25T20:04:17.692Z,14.68
2023-01-25T20:06:44.757Z,16.80
2023-01-25T20:09:17.461Z,14.23
2023-01-25T20:11:46.191Z,17.20
2023-01-25T20:14:14.311Z,58.88
2023-01-25T20:16:41.485Z,56.88
2023-01-25T20:19:11.742Z,84.57
2023-01-25T20:21:39.775Z,54.72
2023-01-25T20:24:08.619Z,62.15
2023-01-25T20:26:39.212Z,41.58
2023-01-25T20:29:07.887Z,18.33
2023-01-25T20:31:38.038Z,18.88
2023-01-25T20:34:19.239Z,17.40
2023-01-25T20:36:47.063Z,17.83
2023-01-25T20:39:17.828Z,16.37
2023-01-25T20:41:45.768Z,52.83
2023-01-25T20:44:15.307Z,24.45
2023-01-25T20:46:43.161Z,16.20
2023-01-25T20:49:18.401Z,16.85
2023-01-25T20:51:46.942Z,17.08
2023-01-25T20:54:15.703Z,17.43
2023-01-25T20:56:43.132Z,19.48
2023-01-25T20:59:10.766Z,17.20
2023-01-25T21:01:37.912Z,17.88
2023-01-25T21:04:07.987Z,16.30
2023-01-25T21:06:35.403Z,15.25
2023-01-25T21:09:04.094Z,15.43
2023-01-25T21:11:31.595Z,18.30
2023-01-25T21:13:59.585Z,14.63
2023-01-25T21:16:27.171Z,16.30
2023-01-25T21:19:00.269Z,16.73
2023-01-25T21:21:30.053Z,17.15
2023-01-25T21:24:00.119Z,15.15
2023-01-25T21:26:33.522Z,16.20
2023-01-25T21:29:02.184Z,17.00
2023-01-25T21:31:33.115Z,16.23
2023-01-25T21:34:00.590Z,15.10
2023-01-25T21:36:28.074Z,17.35
2023-01-25T21:38:55.779Z,18.33
2023-01-25T21:41:29.839Z,14.40
2023-01-25T21:44:17.797Z,17.00
2023-01-25T21:47:04.171Z,17.58
2023-01-25T21:49:51.678Z,18.02
2023-01-25T21:52:18.657Z,18.13
2023-01-25T21:54:45.628Z,19.30
2023-01-25T21:57:12.598Z,17.37
2023-01-25T21:59:42.518Z,17.48
2023-01-25T22:02:14.452Z,16.42
2023-01-25T22:04:41.521Z,14.38
2023-01-25T22:07:09.840Z,17.27
2023-01-25T22:09:37.096Z,17.45
2023-01-25T22:12:04.499Z,14.10
2023-01-25T22:14:31.648Z,16.02
2023-01-25T22:16:58.691Z,16.67
2023-01-25T22:19:25.893Z,15.20
2023-01-25T22:21:52.909Z,13.50
2023-01-25T22:24:19.968Z,14.07
2023-01-25T22:26:51.589Z,15.67
2023-01-25T22:29:18.690Z,14.45
2023-01-25T22:31:45.731Z,16.17
2023-01-25T22:34:12.709Z,13.55
2023-01-25T22:36:39.651Z,15.60
2023-01-25T22:39:06.695Z,14.43
2023-01-25T22:41:37.137Z,12.38
2023-01-25T22:44:04.429Z,13.68
2023-01-25T22:46:31.692Z,14.27
2023-01-25T22:48:59.512Z,13.77
2023-01-25T22:51:29.789Z,15.05
2023-01-25T22:53:58.605Z,14.65
2023-01-25T22:56:30.181Z,15.18
2023-01-25T22:58:57.992Z,13.88
2023-01-25T23:01:29.344Z,14.20
2023-01-25T23:03:57.182Z,11.95
2023-01-25T23:06:31.335Z,13.85
2023-01-25T23:09:00.749Z,13.15
2023-01-25T23:11:32.422Z,12.70
2023-01-25T23:14:18.415Z,13.82
2023-01-25T23:16:46.051Z,12.52
2023-01-25T23:19:13.441Z,14.52
2023-01-25T23:21:41.415Z,14.45
2023-01-25T23:24:09.321Z,11.93
2023-01-25T23:26:40.951Z,13.80
2023-01-25T23:29:11.876Z,15.30
2023-01-25T23:31:39.256Z,13.68
2023-01-25T23:34:07.194Z,13.07
2023-01-25T23:36:42.298Z,12.00
2023-01-25T23:39:13.017Z,12.77
2023-01-25T23:41:40.195Z,11.45
2023-01-25T23:44:09.131Z,13.63
2023-01-25T23:46:36.557Z,13.32
2023-01-25T23:49:03.589Z,15.60
2023-01-25T23:51:30.651Z,12.70
2023-01-25T23:53:58.387Z,13.13
2023-01-25T23:56:25.383Z,15.23
2023-01-25T23:58:52.411Z,11.48
